createdAt,value
2022-08-28T00:02:42.049Z,100.00
2022-08-28T00:05:43.550Z,100.00
2022-08-28T00:08:44.919Z,100.00
2022-08-28T00:11:48.366Z,100.00
2022-08-28T00:14:49.768Z,100.00
2022-08-28T00:17:51.179Z,100.00
2022-08-28T00:20:52.565Z,100.00
2022-08-28T00:23:54.423Z,100.00
2022-08-28T00:27:14.546Z,100.00
2022-08-28T00:30:17.038Z,100.00
2022-08-28T00:33:31.167Z,100.00
2022-08-28T00:36:32.578Z,100.00
2022-08-28T00:39:34.032Z,100.00
2022-08-28T00:42:35.514Z,100.00
2022-08-28T00:45:39.828Z,100.00
2022-08-28T00:48:41.561Z,100.00
2022-08-28T00:52:01.687Z,100.00
2022-08-28T00:55:05.206Z,100.00
2022-08-28T00:58:06.874Z,100.00
2022-08-28T01:01:08.260Z,100.00
2022-08-28T01:04:09.881Z,100.00
2022-08-28T01:07:12.930Z,100.00
2022-08-28T01:10:16.794Z,100.00
2022-08-28T01:13:18.214Z,100.00
2022-08-28T01:16:19.625Z,100.00
2022-08-28T01:19:23.903Z,100.00
2022-08-28T01:22:33.432Z,100.00
2022-08-28T01:25:35.112Z,100.00
2022-08-28T01:28:36.576Z,100.00
2022-08-28T01:31:38.489Z,100.00
2022-08-28T01:34:40.339Z,100.00
2022-08-28T01:37:42.179Z,100.00
2022-08-28T01:40:45.263Z,100.00
2022-08-28T01:43:49.102Z,100.00
2022-08-28T01:46:54.196Z,100.00
2022-08-28T01:49:55.592Z,100.00
2022-08-28T01:52:57.079Z,100.00
2022-08-28T01:55:58.712Z,100.00
2022-08-28T01:59:01.390Z,100.00
2022-08-28T02:02:03.752Z,100.00
2022-08-28T02:05:05.418Z,100.00
2022-08-28T02:08:07.037Z,100.00
2022-08-28T02:11:08.858Z,100.00
2022-08-28T02:14:10.635Z,100.00
2022-08-28T02:17:12.117Z,100.00
2022-08-28T02:20:13.487Z,100.00
2022-08-28T02:23:14.856Z,100.00
2022-08-28T02:26:16.211Z,100.00
2022-08-28T02:29:18.607Z,100.00
2022-08-28T02:32:19.974Z,100.00
2022-08-28T02:35:23.100Z,100.00
2022-08-28T02:38:24.464Z,100.00
2022-08-28T02:41:25.991Z,100.00
2022-08-28T02:44:27.390Z,100.00
2022-08-28T02:47:29.060Z,100.00
2022-08-28T02:50:31.091Z,100.00
2022-08-28T02:53:32.631Z,100.00
2022-08-28T02:56:34.364Z,100.00
2022-08-28T02:59:36.217Z,100.00
2022-08-28T03:02:38.002Z,100.00
2022-08-28T03:05:39.486Z,100.00
2022-08-28T03:08:41.623Z,100.00
2022-08-28T03:11:43.043Z,100.00
2022-08-28T03:14:44.411Z,100.00
2022-08-28T03:17:45.778Z,100.00
2022-08-28T03:20:49.429Z,100.00
2022-08-28T03:23:50.840Z,100.00
2022-08-28T03:26:52.239Z,100.00
2022-08-28T03:29:53.624Z,100.00
2022-08-28T03:32:55.010Z,100.00
2022-08-28T03:35:56.445Z,100.00
2022-08-28T03:38:58.644Z,100.00
2022-08-28T03:42:00.961Z,100.00
2022-08-28T03:45:02.659Z,100.00
2022-08-28T03:48:04.692Z,100.00
2022-08-28T03:51:06.833Z,100.00
2022-08-28T03:54:08.293Z,100.00
2022-08-28T03:57:09.673Z,100.00
2022-08-28T04:00:11.635Z,100.00
2022-08-28T04:03:13.784Z,100.00
2022-08-28T04:06:15.890Z,100.00
2022-08-28T04:09:17.272Z,100.00
2022-08-28T04:12:18.641Z,100.00
2022-08-28T04:15:21.446Z,100.00
2022-08-28T04:18:22.852Z,100.00
2022-08-28T04:21:27.189Z,100.00
2022-08-28T04:24:28.687Z,100.00
2022-08-28T04:27:30.160Z,100.00
2022-08-28T04:30:31.559Z,100.00
2022-08-28T04:33:32.968Z,100.00
2022-08-28T04:36:34.324Z,100.00
2022-08-28T04:39:35.743Z,100.00
2022-08-28T04:42:37.568Z,100.00
2022-08-28T04:45:43.334Z,100.00
2022-08-28T04:48:44.844Z,100.00
2022-08-28T04:51:46.989Z,100.00
2022-08-28T04:54:49.263Z,100.00
2022-08-28T04:57:50.615Z,100.00
2022-08-28T05:00:52.241Z,100.00
2022-08-28T05:03:57.740Z,100.00
2022-08-28T05:06:59.153Z,100.00
2022-08-28T05:10:00.534Z,100.00
2022-08-28T05:13:01.911Z,100.00
2022-08-28T05:16:03.493Z,100.00
2022-08-28T05:19:04.869Z,100.00
2022-08-28T05:22:06.326Z,100.00
2022-08-28T05:25:07.971Z,100.00
2022-08-28T05:28:12.299Z,100.00
2022-08-28T05:31:16.105Z,100.00
2022-08-28T05:34:17.528Z,100.00
2022-08-28T05:37:19.780Z,100.00
2022-08-28T05:40:22.248Z,100.00
2022-08-28T05:43:24.810Z,100.00
2022-08-28T05:46:28.096Z,100.00
2022-08-28T05:49:29.470Z,100.00
2022-08-28T05:52:30.838Z,100.00
2022-08-28T05:55:32.234Z,100.00
2022-08-28T05:58:34.732Z,100.00
2022-08-28T06:01:39.084Z,100.00
2022-08-28T06:04:40.626Z,100.00
2022-08-28T06:07:42.023Z,100.00
2022-08-28T06:10:44.648Z,100.00
2022-08-28T06:13:48.260Z,100.00
2022-08-28T06:16:53.483Z,100.00
2022-08-28T06:19:54.913Z,100.00
2022-08-28T06:22:56.254Z,100.00
2022-08-28T06:25:58.223Z,100.00
2022-08-28T06:29:00.850Z,100.00
2022-08-28T06:32:04.365Z,100.00
2022-08-28T06:35:05.873Z,100.00
2022-08-28T06:38:07.491Z,100.00
2022-08-28T06:41:11.536Z,100.00
2022-08-28T06:44:19.742Z,100.00
2022-08-28T06:47:21.178Z,100.00
2022-08-28T06:50:22.597Z,100.00
2022-08-28T06:53:24.729Z,100.00
2022-08-28T06:56:27.173Z,100.00
2022-08-28T06:59:28.779Z,100.00
2022-08-28T07:02:30.183Z,100.00
2022-08-28T07:05:32.168Z,100.00
2022-08-28T07:08:33.662Z,100.00
2022-08-28T07:11:35.296Z,100.00
2022-08-28T07:14:38.103Z,100.00
2022-08-28T07:17:39.494Z,100.00
2022-08-28T07:20:40.871Z,100.00
2022-08-28T07:23:42.447Z,100.00
2022-08-28T07:26:44.363Z,100.00
2022-08-28T07:29:45.761Z,100.00
2022-08-28T07:32:50.007Z,100.00
2022-08-28T07:35:51.430Z,100.00
2022-08-28T07:38:53.342Z,100.00
2022-08-28T07:41:55.198Z,100.00
2022-08-28T07:44:59.166Z,100.00
2022-08-28T07:48:00.541Z,100.00
2022-08-28T07:51:05.320Z,100.00
2022-08-28T07:54:06.871Z,100.00
2022-08-28T07:57:12.624Z,100.00
2022-08-28T08:00:14.096Z,100.00
2022-08-28T08:03:15.581Z,100.00
2022-08-28T08:06:17.476Z,100.00
2022-08-28T08:09:19.253Z,100.00
2022-08-28T08:12:20.640Z,100.00
2022-08-28T08:15:22.036Z,100.00
2022-08-28T08:18:24.152Z,100.00
2022-08-28T08:21:30.009Z,100.00
2022-08-28T08:24:31.953Z,100.00
2022-08-28T08:27:33.349Z,100.00
2022-08-28T08:30:34.741Z,100.00
2022-08-28T08:33:36.359Z,100.00
2022-08-28T08:36:38.071Z,100.00
2022-08-28T08:39:39.634Z,100.00
2022-08-28T08:42:43.751Z,100.00
2022-08-28T08:45:45.368Z,100.00
2022-08-28T08:48:46.775Z,100.00
2022-08-28T08:51:50.434Z,100.00
2022-08-28T08:55:01.702Z,100.00
2022-08-28T08:58:18.491Z,100.00
2022-08-28T09:01:29.510Z,100.00
2022-08-28T09:04:34.467Z,100.00
2022-08-28T09:07:44.663Z,100.00
2022-08-28T09:10:48.322Z,100.00
2022-08-28T09:13:55.051Z,100.00
2022-08-28T09:16:56.448Z,100.00
2022-08-28T09:19:58.452Z,100.00
2022-08-28T09:22:59.874Z,100.00
2022-08-28T09:26:02.485Z,100.00
2022-08-28T09:29:05.353Z,100.00
2022-08-28T09:32:15.698Z,100.00
2022-08-28T09:35:24.939Z,100.00
2022-08-28T09:38:27.671Z,100.00
2022-08-28T09:41:48.055Z,100.00
2022-08-28T09:44:56.456Z,100.00
2022-08-28T09:47:57.996Z,100.00
2022-08-28T09:51:28.682Z,100.00
2022-08-28T09:54:34.613Z,100.00
2022-08-28T09:57:35.972Z,100.00
2022-08-28T10:00:38.191Z,100.00
2022-08-28T10:03:43.294Z,100.00
2022-08-28T10:07:04.925Z,100.00
2022-08-28T10:10:17.481Z,100.00
2022-08-28T10:13:19.288Z,100.00
2022-08-28T10:16:28.907Z,100.00
2022-08-28T10:19:58.237Z,100.00
2022-08-28T10:23:02.957Z,100.00
2022-08-28T10:26:04.288Z,100.00
2022-08-28T10:29:11.806Z,100.00
2022-08-28T10:32:21.528Z,100.00
2022-08-28T10:35:25.268Z,100.00
2022-08-28T10:38:32.740Z,100.00
2022-08-28T10:41:37.568Z,100.00
2022-08-28T10:44:40.836Z,100.00
2022-08-28T10:47:52.480Z,100.00
2022-08-28T10:50:55.181Z,100.00
2022-08-28T10:53:58.361Z,100.00
2022-08-28T10:57:06.072Z,100.00
2022-08-28T11:00:11.109Z,100.00
2022-08-28T11:03:32.926Z,100.00
2022-08-28T11:06:39.824Z,100.00
2022-08-28T11:09:43.452Z,100.00
2022-08-28T11:12:44.881Z,100.00
2022-08-28T11:15:48.395Z,100.00
2022-08-28T11:19:01.860Z,100.00
2022-08-28T11:22:03.679Z,100.00
2022-08-28T11:25:09.963Z,100.00
2022-08-28T11:28:12.048Z,100.00
2022-08-28T11:31:19.229Z,100.00
2022-08-28T11:37:39.790Z,100.00
2022-08-28T11:40:44.207Z,100.00
2022-08-28T11:43:45.787Z,100.00
2022-08-28T11:46:50.852Z,100.00
2022-08-28T11:49:52.852Z,100.00
2022-08-28T11:52:57.179Z,100.00
2022-08-28T11:56:01.554Z,100.00
2022-08-28T11:59:07.964Z,100.00
2022-08-28T12:02:44.171Z,100.00
2022-08-28T12:05:49.714Z,100.00
2022-08-28T12:08:51.396Z,100.00
2022-08-28T12:11:53.659Z,99.60
2022-08-28T12:14:55.044Z,99.11
2022-08-28T12:18:06.646Z,100.00
2022-08-28T12:21:12.776Z,100.00
2022-08-28T12:24:23.292Z,100.00
2022-08-28T12:27:24.783Z,100.00
2022-08-28T12:30:30.354Z,100.00
2022-08-28T12:33:31.977Z,98.69
2022-08-28T12:36:33.375Z,100.00
2022-08-28T12:39:34.794Z,100.00
2022-08-28T12:42:37.883Z,100.00
2022-08-28T12:45:39.343Z,100.00
2022-08-28T12:48:53.955Z,100.00
2022-08-28T12:52:09.121Z,100.00
2022-08-28T12:55:10.560Z,100.00
2022-08-28T12:58:13.027Z,100.00
2022-08-28T13:01:15.609Z,100.00
2022-08-28T13:04:27.256Z,100.00
2022-08-28T13:07:29.607Z,100.00
2022-08-28T13:10:35.071Z,100.00
2022-08-28T13:13:36.729Z,100.00
2022-08-28T13:16:39.507Z,100.00
2022-08-28T13:19:41.026Z,100.00
2022-08-28T13:22:44.999Z,100.00
2022-08-28T13:26:02.165Z,100.00
2022-08-28T13:29:05.197Z,98.96
2022-08-28T13:32:07.588Z,100.00
2022-08-28T13:35:10.911Z,100.00
2022-08-28T13:38:12.991Z,100.00
2022-08-28T13:41:14.431Z,100.00
2022-08-28T13:44:38.838Z,99.67
2022-08-28T13:47:40.222Z,94.67
2022-08-28T13:50:42.424Z,96.52
2022-08-28T13:53:47.067Z,95.18
2022-08-28T13:56:48.462Z,100.00
2022-08-28T13:59:53.618Z,100.00
2022-08-28T14:03:15.627Z,100.00
2022-08-28T14:06:17.314Z,100.00
2022-08-28T14:09:18.678Z,100.00
2022-08-28T14:12:22.593Z,99.83
2022-08-28T14:15:32.806Z,96.18
2022-08-28T14:18:34.657Z,100.00
2022-08-28T14:21:36.468Z,100.00
2022-08-28T14:24:37.842Z,97.37
2022-08-28T14:27:39.250Z,97.59
2022-08-28T14:30:44.009Z,99.86
2022-08-28T14:33:46.058Z,100.00
2022-08-28T14:36:50.885Z,100.00
2022-08-28T14:39:52.256Z,100.00
2022-08-28T14:42:53.632Z,100.00
2022-08-28T14:45:55.059Z,100.00
2022-08-28T14:48:56.973Z,100.00
2022-08-28T14:51:58.613Z,100.00
2022-08-28T14:55:00.032Z,100.00
2022-08-28T14:58:01.387Z,100.00
2022-08-28T15:01:02.987Z,100.00
2022-08-28T15:04:04.843Z,100.00
2022-08-28T15:07:07.417Z,100.00
2022-08-28T15:10:11.574Z,100.00
2022-08-28T15:13:13.240Z,100.00
2022-08-28T15:16:20.639Z,100.00
2022-08-28T15:19:23.346Z,100.00
2022-08-28T15:22:27.446Z,100.00
2022-08-28T15:25:29.012Z,100.00
2022-08-28T15:28:30.390Z,100.00
2022-08-28T15:31:32.424Z,98.56
2022-08-28T15:34:33.867Z,98.00
2022-08-28T15:37:35.219Z,95.62
2022-08-28T15:40:55.356Z,97.71
2022-08-28T15:44:00.147Z,94.78
2022-08-28T15:47:02.124Z,97.61
2022-08-28T15:50:03.562Z,96.85
2022-08-28T15:53:06.184Z,93.42
2022-08-28T15:56:08.448Z,92.72
2022-08-28T15:59:10.634Z,93.46
2022-08-28T16:02:12.435Z,93.27
2022-08-28T16:05:13.972Z,90.65
2022-08-28T16:08:15.364Z,91.84
2022-08-28T16:11:17.431Z,90.34
2022-08-28T16:14:21.042Z,90.87
2022-08-28T16:17:22.872Z,89.53
2022-08-28T16:20:25.288Z,89.48
2022-08-28T16:23:26.693Z,89.79
2022-08-28T16:26:28.039Z,92.11
2022-08-28T16:29:29.586Z,91.50
2022-08-28T16:32:31.447Z,93.44
2022-08-28T16:35:33.256Z,94.28
2022-08-28T16:38:39.113Z,96.04
2022-08-28T16:41:41.520Z,95.47
2022-08-28T16:44:42.894Z,95.26
2022-08-28T16:47:44.268Z,98.93
2022-08-28T16:50:45.651Z,99.41
2022-08-28T16:53:47.094Z,99.30
2022-08-28T16:56:48.555Z,98.59
2022-08-28T16:59:53.014Z,100.00
2022-08-28T17:02:54.964Z,99.69
2022-08-28T17:05:56.381Z,99.65
2022-08-28T17:08:58.061Z,100.00
2022-08-28T17:11:59.544Z,100.00
2022-08-28T17:15:01.401Z,100.00
2022-08-28T17:18:02.768Z,99.81
2022-08-28T17:21:23.012Z,100.00
2022-08-28T17:24:24.654Z,100.00
2022-08-28T17:27:26.167Z,100.00
2022-08-28T17:30:27.615Z,100.00
2022-08-28T17:33:28.955Z,100.00
2022-08-28T17:36:33.019Z,100.00
2022-08-28T17:39:35.998Z,100.00
2022-08-28T17:42:37.439Z,100.00
2022-08-28T17:45:39.406Z,100.00
2022-08-28T17:48:40.858Z,100.00
2022-08-28T17:51:49.333Z,100.00
2022-08-28T17:54:51.479Z,100.00
2022-08-28T17:57:52.862Z,100.00
2022-08-28T18:00:54.278Z,100.00
2022-08-28T18:03:55.702Z,100.00
2022-08-28T18:06:57.051Z,100.00
2022-08-28T18:09:58.434Z,100.00
2022-08-28T18:13:00.568Z,100.00
2022-08-28T18:16:02.060Z,100.00
2022-08-28T18:19:05.013Z,100.00
2022-08-28T18:22:07.882Z,100.00
2022-08-28T18:25:29.386Z,100.00
2022-08-28T18:28:32.282Z,100.00
2022-08-28T18:31:33.768Z,100.00
2022-08-28T18:34:35.282Z,100.00
2022-08-28T18:37:36.658Z,100.00
2022-08-28T18:40:38.232Z,100.00
2022-08-28T18:43:39.649Z,100.00
2022-08-28T18:46:41.549Z,100.00
2022-08-28T18:49:43.058Z,100.00
2022-08-28T18:52:44.495Z,100.00
2022-08-28T18:55:45.937Z,100.00
2022-08-28T18:58:47.835Z,100.00
2022-08-28T19:01:49.405Z,100.00
2022-08-28T19:04:50.879Z,100.00
2022-08-28T19:07:52.293Z,100.00
2022-08-28T19:10:54.050Z,100.00
2022-08-28T19:13:55.455Z,100.00
2022-08-28T19:16:57.290Z,100.00
2022-08-28T19:19:58.849Z,100.00
2022-08-28T19:23:00.225Z,100.00
2022-08-28T19:26:01.654Z,100.00
2022-08-28T19:29:03.237Z,100.00
2022-08-28T19:32:07.318Z,100.00
2022-08-28T19:35:08.889Z,100.00
2022-08-28T19:38:10.452Z,100.00
2022-08-28T19:41:12.811Z,100.00
2022-08-28T19:44:14.693Z,100.00
2022-08-28T19:47:16.223Z,100.00
2022-08-28T19:50:17.765Z,100.00
2022-08-28T19:53:19.529Z,100.00
2022-08-28T19:56:25.155Z,100.00
2022-08-28T19:59:27.259Z,100.00
2022-08-28T20:02:29.425Z,100.00
2022-08-28T20:05:30.884Z,100.00
2022-08-28T20:08:33.549Z,100.00
2022-08-28T20:11:34.898Z,100.00
2022-08-28T20:14:38.770Z,100.00
2022-08-28T20:17:43.850Z,100.00
2022-08-28T20:20:51.544Z,100.00
2022-08-28T20:23:52.998Z,100.00
2022-08-28T20:26:54.389Z,100.00
2022-08-28T20:29:56.143Z,100.00
2022-08-28T20:32:57.598Z,100.00
2022-08-28T20:36:00.195Z,100.00
2022-08-28T20:39:04.503Z,100.00
2022-08-28T20:42:06.578Z,100.00
2022-08-28T20:45:08.926Z,100.00
2022-08-28T20:48:10.319Z,100.00
2022-08-28T20:51:11.963Z,100.00
2022-08-28T20:54:13.418Z,100.00
2022-08-28T20:57:16.017Z,100.00
2022-08-28T21:00:18.413Z,100.00
2022-08-28T21:03:19.852Z,100.00
2022-08-28T21:06:26.666Z,100.00
2022-08-28T21:09:35.858Z,100.00
2022-08-28T21:12:49.624Z,100.00
2022-08-28T21:15:50.997Z,100.00
2022-08-28T21:19:14.808Z,100.00
2022-08-28T21:22:13.727Z,100.00
2022-08-28T21:25:16.993Z,100.00
2022-08-28T21:28:18.366Z,100.00
2022-08-28T21:31:20.755Z,100.00
2022-08-28T21:34:22.351Z,100.00
2022-08-28T21:37:23.784Z,100.00
2022-08-28T21:40:25.186Z,100.00
2022-08-28T21:43:26.552Z,100.00
2022-08-28T21:46:33.329Z,100.00
2022-08-28T21:49:35.277Z,100.00
2022-08-28T21:52:38.188Z,100.00
2022-08-28T21:55:39.875Z,100.00
2022-08-28T21:58:41.398Z,100.00
2022-08-28T22:01:42.847Z,100.00
2022-08-28T22:04:44.251Z,100.00
2022-08-28T22:07:45.594Z,100.00
2022-08-28T22:10:47.050Z,100.00
2022-08-28T22:13:48.466Z,100.00
2022-08-28T22:16:49.872Z,100.00
2022-08-28T22:19:51.375Z,100.00
2022-08-28T22:23:10.990Z,100.00
2022-08-28T22:26:17.657Z,100.00
2022-08-28T22:29:19.036Z,100.00
2022-08-28T22:32:25.438Z,100.00
2022-08-28T22:35:27.121Z,100.00
2022-08-28T22:38:29.425Z,100.00
2022-08-28T22:41:31.355Z,100.00
2022-08-28T22:44:32.740Z,100.00
2022-08-28T22:47:34.117Z,100.00
2022-08-28T22:50:35.487Z,100.00
2022-08-28T22:53:36.843Z,100.00
2022-08-28T22:56:38.193Z,100.00
2022-08-28T22:59:39.570Z,100.00
2022-08-28T23:02:41.039Z,100.00
2022-08-28T23:05:42.613Z,100.00
2022-08-28T23:08:44.008Z,100.00
2022-08-28T23:11:45.362Z,100.00
2022-08-28T23:14:48.733Z,100.00
2022-08-28T23:17:50.344Z,100.00
2022-08-28T23:20:52.395Z,100.00
2022-08-28T23:23:53.801Z,100.00
2022-08-28T23:26:55.184Z,100.00
2022-08-28T23:29:56.635Z,100.00
2022-08-28T23:32:58.045Z,100.00
2022-08-28T23:35:59.639Z,100.00
2022-08-28T23:39:01.288Z,100.00
2022-08-28T23:42:02.663Z,100.00
2022-08-28T23:45:05.214Z,100.00
2022-08-28T23:48:06.691Z,100.00
2022-08-28T23:51:09.460Z,100.00
2022-08-28T23:54:11.099Z,100.00
2022-08-28T23:57:12.453Z,100.00
